Time;durP1;ratioP1;P1;durP2;ratioP2;P2;SDS_P1;SDS_P2;PMS_P1;PMS_P2;Temp;Humidity;BMP_temperature;BMP_pressure;BME280_temperature;BME280_humidity;BME280_pressure;Samples;Min_cycle;Max_cycle;Signal;HPM_P1;HPM_P2
2021/06/16 00:02:17;;;;;;;13.07;5.50;;;487.00;1971.20;;;;;;4862142;29;20032;-83
2021/06/16 00:04:44;;;;;;;12.00;5.70;;;487.10;1971.20;;;;;;4862007;29;20038;-84
2021/06/16 00:07:09;;;;;;;14.55;5.20;;;487.10;1945.60;;;;;;4862410;29;20536;-83
2021/06/16 00:09:36;;;;;;;13.48;5.40;;;487.20;1945.60;;;;;;4862052;29;20029;-83
2021/06/16 00:12:02;;;;;;;8.75;5.05;;;487.10;1920.00;;;;;;4862087;29;20056;-84
2021/06/16 00:14:28;;;;;;;9.95;5.63;;;487.20;1920.00;;;;;;4861830;29;20064;-84
2021/06/16 00:16:54;;;;;;;9.65;5.47;;;487.10;1920.00;;;;;;4861656;29;20102;-84
2021/06/16 00:19:19;;;;;;;11.32;5.65;;;487.10;1945.60;;;;;;4861743;29;20033;-83
2021/06/16 00:21:45;;;;;;;11.23;5.15;;;487.10;1920.00;;;;;;4862303;29;20396;-83
2021/06/16 00:24:13;;;;;;;11.35;5.30;;;487.10;1945.60;;;;;;4881598;29;20044;-84
2021/06/16 00:26:39;;;;;;;10.02;4.95;;;487.10;1920.00;;;;;;4864548;29;20475;-84
2021/06/16 00:29:05;;;;;;;11.05;5.82;;;487.10;1945.60;;;;;;4865026;29;20035;-84
2021/06/16 00:31:31;;;;;;;13.00;5.38;;;487.10;1945.60;;;;;;4864560;29;20462;-83
2021/06/16 00:33:57;;;;;;;10.25;4.30;;;487.10;1945.60;;;;;;4870047;29;20033;-84
2021/06/16 00:36:22;;;;;;;10.88;5.00;;;487.10;1945.60;;;;;;4878894;29;20025;-84
2021/06/16 00:38:48;;;;;;;7.03;4.55;;;487.10;1945.60;;;;;;4864807;29;20433;-84
2021/06/16 00:41:14;;;;;;;12.20;5.05;;;487.00;1945.60;;;;;;4864431;29;20057;-84
2021/06/16 00:43:40;;;;;;;12.75;4.88;;;487.00;1971.20;;;;;;4874779;29;20029;-83
2021/06/16 00:46:05;;;;;;;10.48;5.07;;;486.90;1971.20;;;;;;4864686;29;20025;-84
2021/06/16 00:48:31;;;;;;;8.10;4.80;;;486.80;1971.20;;;;;;4874256;29;20068;-85
2021/06/16 00:50:57;;;;;;;9.35;4.20;;;486.80;1996.80;;;;;;4866676;29;20151;-84
2021/06/16 00:53:23;;;;;;;8.85;4.43;;;;;;;;;;4880120;29;20060;-86
2021/06/16 00:55:49;;;;;;;10.68;4.40;;;486.90;1945.60;;;;;;4881224;29;20033;-83
2021/06/16 00:58:15;;;;;;;8.43;4.35;;;486.80;1971.20;;;;;;4869467;29;20025;-85
2021/06/16 01:00:46;;;;;;;18.17;5.60;;;486.80;1971.20;;;;;;4869343;29;20052;-85
2021/06/16 01:03:25;;;;;;;12.73;5.22;;;486.70;1996.80;;;;;;4868241;29;20491;-85
2021/06/16 01:06:04;;;;;;;8.00;5.20;;;486.70;1971.20;;;;;;4880818;29;20037;-84
2021/06/16 01:08:34;;;;;;;8.55;4.55;;;486.70;1971.20;;;;;;4864565;29;20025;-85
2021/06/16 01:11:05;;;;;;;8.65;4.80;;;486.70;1971.20;;;;;;4875706;29;20480;-85
2021/06/16 01:13:50;;;;;;;12.98;4.95;;;486.70;1971.20;;;;;;4874644;29;20035;-84
2021/06/16 01:16:44;;;;;;;11.05;5.45;;;486.70;1971.20;;;;;;4877146;29;20029;-84
2021/06/16 01:19:34;;;;;;;9.70;5.40;;;486.60;1996.80;;;;;;4870838;29;20032;-85
2021/06/16 01:22:08;;;;;;;11.52;5.10;;;486.60;1996.80;;;;;;4865252;29;20122;-85
2021/06/16 01:24:35;;;;;;;8.43;5.25;;;486.60;1996.80;;;;;;4859738;29;20044;-86
2021/06/16 01:27:01;;;;;;;10.98;5.45;;;486.50;1996.80;;;;;;4863373;29;20029;-84
2021/06/16 01:29:38;;;;;;;12.75;6.60;;;486.50;2022.40;;;;;;4863809;29;20086;-84
2021/06/16 01:32:05;;;;;;;15.07;5.55;;;486.40;2022.40;;;;;;4852358;29;20480;-85
2021/06/16 01:34:31;;;;;;;14.05;6.25;;;486.40;2022.40;;;;;;4863118;29;20492;-85
2021/06/16 01:36:59;;;;;;;12.68;5.55;;;486.40;2022.40;;;;;;4863760;29;20077;-84
2021/06/16 01:39:32;;;;;;;8.98;5.90;;;486.50;1996.80;;;;;;4871601;29;20041;-84
2021/06/16 01:42:01;;;;;;;15.82;6.70;;;486.50;1996.80;;;;;;4864478;29;20480;-84
2021/06/16 01:44:28;;;;;;;12.20;6.32;;;486.40;1996.80;;;;;;4879101;29;20392;-84
2021/06/16 01:46:54;;;;;;;14.15;5.68;;;486.40;2022.40;;;;;;4869416;29;20093;-84
2021/06/16 01:49:27;;;;;;;12.40;6.18;;;461.70;2022.40;;;;;;4863560;29;20025;-84
2021/06/16 01:51:54;;;;;;;10.10;6.22;;;461.70;2022.40;;;;;;4880041;29;20115;-85
2021/06/16 01:54:21;;;;;;;15.18;5.90;;;461.70;2022.40;;;;;;4879133;29;20029;-85
2021/06/16 01:56:49;;;;;;;15.65;6.20;;;461.50;2048.00;;;;;;4878750;29;20033;-85
2021/06/16 01:59:16;;;;;;;17.83;6.30;;;461.50;2048.00;;;;;;4878699;29;20033;-85
2021/06/16 02:01:46;;;;;;;10.30;6.25;;;461.50;2048.00;;;;;;4863103;29;20025;-84
2021/06/16 02:04:11;;;;;;;12.27;5.47;;;461.50;2048.00;;;;;;4863159;29;20040;-84
2021/06/16 02:06:43;;;;;;;10.27;5.72;;;461.50;2048.00;;;;;;4863140;29;20025;-85
2021/06/16 02:09:12;;;;;;;11.52;6.03;;;461.50;2048.00;;;;;;4879562;29;20507;-84
2021/06/16 02:11:40;;;;;;;10.05;6.22;;;461.50;2048.00;;;;;;4865945;29;20028;-85
2021/06/16 02:14:09;;;;;;;14.20;6.60;;;461.50;2048.00;;;;;;4862533;29;20048;-83
2021/06/16 02:16:51;;;;;;;17.30;6.80;;;461.50;2048.00;;;;;;4862656;29;20025;-84
2021/06/16 02:19:21;;;;;;;9.93;6.15;;;461.50;2048.00;;;;;;4863124;29;20040;-84
2021/06/16 02:21:47;;;;;;;15.82;6.93;;;461.50;2048.00;;;;;;4862572;29;20037;-84
2021/06/16 02:24:13;;;;;;;10.68;6.32;;;461.40;2073.60;;;;;;4863044;29;20067;-85
2021/06/16 02:26:39;;;;;;;15.50;6.07;;;461.50;2073.60;;;;;;4862540;29;20384;-84
2021/06/16 02:29:10;;;;;;;10.55;6.63;;;461.10;2073.60;;;;;;4862819;29;20487;-85
2021/06/16 02:31:36;;;;;;;10.32;6.15;;;461.40;2073.60;;;;;;4862821;29;20025;-86
2021/06/16 02:34:03;;;;;;;14.05;7.57;;;461.40;2099.20;;;;;;4866829;29;20025;-84
2021/06/16 02:36:34;;;;;;;12.38;6.68;;;461.20;2099.20;;;;;;4862793;29;20499;-85
2021/06/16 02:39:04;;;;;;;12.55;7.38;;;461.30;2099.20;;;;;;4879035;29;20084;-84
2021/06/16 02:41:30;;;;;;;13.88;6.32;;;461.20;2099.20;;;;;;4862696;29;20140;-84
2021/06/16 02:43:57;;;;;;;11.18;6.10;;;461.30;2099.20;;;;;;4875133;29;20434;-84
2021/06/16 02:46:24;;;;;;;8.95;5.88;;;461.10;2124.80;;;;;;4862798;29;20067;-84
2021/06/16 02:48:52;;;;;;;9.48;6.47;;;461.00;2150.40;;;;;;4862563;29;20056;-84
2021/06/16 02:51:18;;;;;;;12.45;6.82;;;461.10;2150.40;;;;;;4866427;29;20544;-84
2021/06/16 02:53:46;;;;;;;12.50;6.38;;;461.10;2124.80;;;;;;4878445;29;20033;-85
2021/06/16 02:56:14;;;;;;;17.65;7.28;;;461.20;2124.80;;;;;;4851907;29;20068;-84
2021/06/16 02:58:43;;;;;;;16.33;6.88;;;461.20;2099.20;;;;;;4869121;29;20025;-85
2021/06/16 03:01:14;;;;;;;12.93;7.13;;;461.20;2099.20;;;;;;4863698;29;20035;-85
2021/06/16 03:03:44;;;;;;;12.55;6.68;;;461.20;2099.20;;;;;;4878546;29;20045;-84
2021/06/16 03:06:10;;;;;;;18.02;6.50;;;461.30;2099.20;;;;;;4878123;29;20029;-85
2021/06/16 03:08:37;;;;;;;11.13;6.78;;;461.20;2099.20;;;;;;4868786;29;20147;-84
2021/06/16 03:11:04;;;;;;;13.88;7.13;;;461.20;2099.20;;;;;;4877697;29;20080;-85
2021/06/16 03:13:32;;;;;;;11.35;6.55;;;461.20;2099.20;;;;;;4872821;29;20029;-84
2021/06/16 03:15:58;;;;;;;12.43;6.72;;;461.10;2124.80;;;;;;4861972;29;20029;-84
2021/06/16 03:18:26;;;;;;;11.20;6.60;;;461.10;2124.80;;;;;;4862022;29;20084;-84
2021/06/16 03:20:57;;;;;;;10.57;6.75;;;461.10;2124.80;;;;;;4862198;29;20029;-84
2021/06/16 03:23:24;;;;;;;10.48;6.88;;;461.10;2124.80;;;;;;4865223;29;20052;-84
2021/06/16 03:25:50;;;;;;;13.30;7.22;;;460.90;2150.40;;;;;;4865337;29;20037;-84
2021/06/16 03:28:18;;;;;;;13.02;6.55;;;460.80;2150.40;;;;;;4862479;29;20101;-84
2021/06/16 03:30:44;;;;;;;10.30;6.97;;;460.80;2150.40;;;;;;4862069;29;20025;-84
2021/06/16 03:33:10;;;;;;;12.07;6.95;;;460.80;2150.40;;;;;;4862431;29;20021;-84
2021/06/16 03:35:36;;;;;;;9.30;6.68;;;436.10;2150.40;;;;;;4863126;29;20025;-84
2021/06/16 03:38:03;;;;;;;12.70;6.43;;;460.80;2176.00;;;;;;4862118;29;20081;-84
2021/06/16 03:40:30;;;;;;;22.73;7.22;;;460.90;2176.00;;;;;;4861779;29;20052;-84
2021/06/16 03:42:57;;;;;;;14.63;7.40;;;460.90;2176.00;;;;;;4862175;29;20081;-84
2021/06/16 03:45:25;;;;;;;11.85;6.28;;;461.00;2150.40;;;;;;4861823;29;20049;-84
2021/06/16 03:47:55;;;;;;;10.95;7.05;;;461.00;2150.40;;;;;;4861311;29;20033;-84
2021/06/16 03:50:22;;;;;;;11.88;6.45;;;461.10;2150.40;;;;;;4862109;29;20077;-85
2021/06/16 03:52:48;;;;;;;13.85;6.60;;;461.10;2150.40;;;;;;4860296;29;20124;-84
2021/06/16 03:55:18;;;;;;;9.95;7.15;;;461.00;2150.40;;;;;;4854805;29;20037;-84
2021/06/16 03:57:45;;;;;;;7.93;5.72;;;461.00;2176.00;;;;;;4878480;29;20025;-84
2021/06/16 04:00:11;;;;;;;11.48;6.47;;;460.90;2176.00;;;;;;4868430;29;20089;-84
2021/06/16 04:02:38;;;;;;;12.20;6.85;;;461.00;2176.00;;;;;;4864588;29;20037;-85
2021/06/16 04:05:06;;;;;;;12.82;7.28;;;461.10;2150.40;;;;;;4872323;29;20067;-85
2021/06/16 04:07:34;;;;;;;12.20;7.10;;;461.10;2150.40;;;;;;4877764;29;20238;-84
2021/06/16 04:10:00;;;;;;;12.52;7.05;;;461.10;2150.40;;;;;;4879586;29;20029;-84
2021/06/16 04:12:25;;;;;;;10.65;7.38;;;461.30;2150.40;;;;;;4871148;29;20028;-85
2021/06/16 04:14:52;;;;;;;12.38;6.38;;;461.40;2150.40;;;;;;4878249;29;20056;-84
2021/06/16 04:17:19;;;;;;;12.05;7.10;;;461.30;2150.40;;;;;;4881878;29;20025;-84
2021/06/16 04:19:45;;;;;;;11.15;6.95;;;461.30;2150.40;;;;;;4878639;29;20498;-84
2021/06/16 04:22:12;;;;;;;14.07;6.47;;;461.40;2150.40;;;;;;4873815;29;20041;-84
2021/06/16 04:24:37;;;;;;;14.32;7.70;;;461.50;2150.40;;;;;;4864764;29;20041;-84
2021/06/16 04:27:04;;;;;;;13.93;6.80;;;461.50;2150.40;;;;;;4880507;29;20032;-84
2021/06/16 04:29:29;;;;;;;12.43;7.75;;;461.50;2150.40;;;;;;4869619;29;20048;-84
2021/06/16 04:31:55;;;;;;;17.63;7.82;;;461.70;2150.40;;;;;;4881438;29;20025;-83
2021/06/16 04:34:22;;;;;;;14.63;7.30;;;461.70;2150.40;;;;;;4873303;29;20032;-84
2021/06/16 04:36:48;;;;;;;16.67;8.07;;;486.40;2150.40;;;;;;4880164;29;20077;-85
2021/06/16 04:39:15;;;;;;;10.25;6.60;;;486.40;2124.80;;;;;;4873876;29;20395;-85
2021/06/16 04:41:41;;;;;;;15.35;6.68;;;486.50;2124.80;;;;;;4868481;29;20485;-86
2021/06/16 04:44:07;;;;;;;13.10;6.55;;;486.50;2124.80;;;;;;4864781;29;20101;-85
2021/06/16 04:46:33;;;;;;;15.75;6.55;;;486.50;2124.80;;;;;;4865060;29;20029;-85
2021/06/16 04:48:59;;;;;;;11.30;6.32;;;486.50;2124.80;;;;;;4877162;29;20120;-86
2021/06/16 04:51:26;;;;;;;16.08;7.55;;;486.60;2124.80;;;;;;4869241;29;20044;-84
2021/06/16 04:53:51;;;;;;;13.43;7.95;;;486.70;2124.80;;;;;;4869448;29;20032;-83
2021/06/16 04:56:17;;;;;;;13.52;7.63;;;486.70;2124.80;;;;;;4864359;29;20029;-84
2021/06/16 04:58:43;;;;;;;9.23;5.97;;;486.80;2124.80;;;;;;4864409;29;20032;-85
2021/06/16 05:01:09;;;;;;;16.75;8.07;;;486.80;2099.20;;;;;;4877477;29;20040;-84
2021/06/16 05:03:35;;;;;;;12.15;7.22;;;486.80;2124.80;;;;;;4863590;29;20060;-83
2021/06/16 05:06:00;;;;;;;15.98;7.10;;;486.70;2150.40;;;;;;4876691;29;20396;-85
2021/06/16 05:08:26;;;;;;;11.48;7.25;;;486.80;2150.40;;;;;;4869241;29;20044;-84
2021/06/16 05:10:52;;;;;;;14.05;6.80;;;486.90;2150.40;;;;;;4880074;29;20036;-83
2021/06/16 05:13:25;;;;;;;10.23;6.82;;;487.10;2124.80;;;;;;4878616;29;20037;-79
2021/06/16 05:15:52;;;;;;;10.73;6.50;;;487.10;2124.80;;;;;;4880302;29;20028;-80
2021/06/16 05:18:18;;;;;;;21.38;12.45;;;487.00;2124.80;;;;;;4862888;29;20037;-80
2021/06/16 05:20:44;;;;;;;14.63;8.95;;;487.20;2099.20;;;;;;4879163;29;20060;-79
2021/06/16 05:23:10;;;;;;;15.32;6.78;;;487.30;2099.20;;;;;;4879207;29;20053;-81
2021/06/16 05:25:36;;;;;;;12.73;7.10;;;512.00;2099.20;;;;;;4862755;29;20039;-79
2021/06/16 05:28:02;;;;;;;10.45;5.57;;;512.00;2099.20;;;;;;4879696;29;20027;-80
2021/06/16 05:30:28;;;;;;;13.07;6.95;;;512.10;2073.60;;;;;;4863025;29;20040;-79
2021/06/16 05:32:54;;;;;;;12.77;7.57;;;512.20;2073.60;;;;;;4862839;29;20021;-80
2021/06/16 05:35:20;;;;;;;12.45;6.35;;;512.40;2073.60;;;;;;4862909;29;20108;-83
2021/06/16 05:37:47;;;;;;;12.52;6.25;;;512.40;2048.00;;;;;;4862348;29;20376;-78
2021/06/16 05:40:14;;;;;;;11.48;6.18;;;512.60;2022.40;;;;;;4862546;29;20021;-79
2021/06/16 05:42:41;;;;;;;16.63;7.43;;;512.70;2022.40;;;;;;4862767;29;20124;-79
2021/06/16 05:45:08;;;;;;;13.65;7.20;;;512.80;1996.80;;;;;;4861855;29;20045;-78
2021/06/16 05:47:33;;;;;;;13.40;5.93;;;512.90;1996.80;;;;;;4862209;29;20394;-77
2021/06/16 05:49:59;;;;;;;13.65;5.82;;;537.60;1996.80;;;;;;4859988;29;20033;-77
2021/06/16 05:52:25;;;;;;;7.45;5.25;;;537.70;1996.80;;;;;;4862255;29;20700;-82
2021/06/16 05:54:52;;;;;;;14.10;5.50;;;537.80;1996.80;;;;;;4876356;29;20573;-79
2021/06/16 05:57:18;;;;;;;11.68;5.93;;;537.90;1996.80;;;;;;4862076;29;20029;-80
2021/06/16 05:59:43;;;;;;;12.50;5.75;;;538.00;1996.80;;;;;;4862608;29;20037;-81
2021/06/16 06:02:09;;;;;;;8.93;5.90;;;538.00;1971.20;;;;;;4862808;29;20514;-83
2021/06/16 06:04:35;;;;;;;13.10;6.00;;;538.20;1971.20;;;;;;4862405;29;20116;-80
2021/06/16 06:07:03;;;;;;;11.43;5.65;;;538.30;1945.60;;;;;;4878739;29;20476;-81
2021/06/16 06:09:29;;;;;;;10.50;5.70;;;538.40;1945.60;;;;;;4862084;29;20075;-80
2021/06/16 06:11:55;;;;;;;9.85;5.65;;;538.50;1945.60;;;;;;4861964;29;20108;-78
2021/06/16 06:14:20;;;;;;;7.82;5.03;;;538.50;1920.00;;;;;;4861693;29;20112;-78
2021/06/16 06:16:46;;;;;;;12.68;5.95;;;563.20;1945.60;;;;;;4862301;29;20021;-80
2021/06/16 06:19:12;;;;;;;11.07;5.60;;;563.30;1945.60;;;;;;4862122;29;20033;-79
2021/06/16 06:21:38;;;;;;;15.13;5.53;;;563.40;1945.60;;;;;;4861914;29;20522;-83
2021/06/16 06:24:04;;;;;;;10.50;5.10;;;563.50;1945.60;;;;;;4861922;29;20163;-79
2021/06/16 06:26:34;;;;;;;8.45;4.88;;;563.60;1920.00;;;;;;4862839;29;20024;-78
2021/06/16 06:29:01;;;;;;;9.70;5.93;;;563.60;1920.00;;;;;;4859085;29;20033;-78
2021/06/16 06:31:27;;;;;;;12.75;6.20;;;563.60;1920.00;;;;;;4875421;29;20090;-85
2021/06/16 06:33:53;;;;;;;12.40;6.13;;;563.60;1920.00;;;;;;4878489;29;20101;-85
2021/06/16 06:36:19;;;;;;;11.38;5.88;;;563.80;1894.40;;;;;;4862002;29;20448;-76
2021/06/16 06:38:46;;;;;;;19.42;5.80;;;563.80;1894.40;;;;;;4878820;29;20017;-85
2021/06/16 06:41:12;;;;;;;9.77;5.18;;;564.00;1894.40;;;;;;4878546;29;20084;-77
2021/06/16 06:43:39;;;;;;;7.68;5.13;;;564.00;1920.00;;;;;;4861807;29;20036;-75
2021/06/16 06:46:04;;;;;;;9.98;5.30;;;564.10;1894.40;;;;;;4878466;29;20017;-76
2021/06/16 06:48:30;;;;;;;8.77;5.55;;;588.80;1920.00;;;;;;4861908;29;20092;-77
2021/06/16 06:50:56;;;;;;;9.38;5.22;;;588.90;1920.00;;;;;;4878074;29;20377;-76
2021/06/16 06:53:22;;;;;;;8.60;5.00;;;588.90;1894.40;;;;;;4878651;29;20029;-81
2021/06/16 06:55:48;;;;;;;11.13;5.93;;;589.00;1894.40;;;;;;4878181;29;20104;-76
2021/06/16 06:58:14;;;;;;;7.85;5.47;;;589.10;1868.80;;;;;;4878437;29;20028;-83
2021/06/16 07:00:40;;;;;;;10.52;6.10;;;589.20;1894.40;;;;;;4872170;29;20396;-82
2021/06/16 07:03:06;;;;;;;8.65;5.18;;;589.30;1868.80;;;;;;4878377;29;20032;-78
2021/06/16 07:05:32;;;;;;;13.10;5.47;;;589.40;1843.20;;;;;;4878445;29;20551;-78
2021/06/16 07:07:58;;;;;;;10.98;5.45;;;589.40;1817.60;;;;;;4848177;29;20017;-84
2021/06/16 07:10:23;;;;;;;12.30;4.18;;;589.60;1817.60;;;;;;4878297;29;20063;-78
2021/06/16 07:12:49;;;;;;;10.23;5.30;;;589.70;1792.00;;;;;;4877911;29;20033;-84
2021/06/16 07:15:15;;;;;;;7.63;4.40;;;614.40;1792.00;;;;;;4861726;29;20061;-82
2021/06/16 07:17:42;;;;;;;8.95;5.10;;;614.40;1817.60;;;;;;4877998;29;20041;-78
2021/06/16 07:20:09;;;;;;;9.63;5.13;;;614.50;1792.00;;;;;;4861466;29;20060;-79
2021/06/16 07:22:35;;;;;;;6.53;4.32;;;614.70;1766.40;;;;;;4861011;29;20061;-82
2021/06/16 07:25:00;;;;;;;7.05;4.22;;;614.70;1766.40;;;;;;4878209;29;20166;-82
2021/06/16 07:27:26;;;;;;;7.38;4.45;;;614.80;1766.40;;;;;;4878033;29;20495;-78
2021/06/16 07:29:52;;;;;;;7.53;4.80;;;614.90;1766.40;;;;;;4877808;29;20108;-79
2021/06/16 07:32:18;;;;;;;6.30;3.92;;;614.90;1740.80;;;;;;4861466;29;20391;-83
2021/06/16 07:34:45;;;;;;;10.85;4.65;;;615.00;1715.20;;;;;;4860612;29;20559;-84
2021/06/16 07:37:10;;;;;;;7.85;4.43;;;615.20;1715.20;;;;;;4861513;29;20029;-78
2021/06/16 07:39:36;;;;;;;6.38;4.28;;;615.20;1689.60;;;;;;4877924;29;20639;-78
2021/06/16 07:42:02;;;;;;;14.48;4.80;;;615.30;1689.60;;;;;;4861289;29;20029;-83
2021/06/16 07:44:28;;;;;;;7.20;4.32;;;640.00;1715.20;;;;;;4878531;29;20488;-79
2021/06/16 07:46:54;;;;;;;5.90;3.85;;;640.10;1689.60;;;;;;4881562;29;20053;-78
2021/06/16 07:49:20;;;;;;;9.32;4.70;;;640.20;1664.00;;;;;;4881452;29;20033;-78
2021/06/16 07:51:46;;;;;;;7.05;3.75;;;640.30;1664.00;;;;;;4864546;29;20033;-78
2021/06/16 07:54:12;;;;;;;7.65;3.90;;;640.40;1638.40;;;;;;4864207;29;20040;-79
2021/06/16 07:56:39;;;;;;;9.50;4.13;;;640.40;1612.80;;;;;;4881150;29;20021;-79
2021/06/16 07:59:05;;;;;;;8.32;4.60;;;640.50;1638.40;;;;;;4879427;29;20021;-78
2021/06/16 08:01:31;;;;;;;9.20;4.22;;;640.60;1612.80;;;;;;4853908;29;20040;-79
2021/06/16 08:03:57;;;;;;;11.85;4.28;;;640.60;1638.40;;;;;;4864413;29;20044;-78
2021/06/16 08:06:22;;;;;;;6.53;3.80;;;640.70;1664.00;;;;;;4873093;29;20041;-83
2021/06/16 08:08:48;;;;;;;6.10;4.28;;;640.80;1664.00;;;;;;4878289;29;20025;-78
2021/06/16 08:11:15;;;;;;;6.57;4.30;;;640.80;1638.40;;;;;;4880937;29;20126;-82
2021/06/16 08:13:41;;;;;;;10.02;4.40;;;640.90;1612.80;;;;;;4864531;29;20032;-78
2021/06/16 08:16:06;;;;;;;8.38;4.05;;;665.70;1612.80;;;;;;4880817;29;20025;-83
2021/06/16 08:18:32;;;;;;;7.60;4.43;;;665.70;1612.80;;;;;;4880963;29;20023;-83
2021/06/16 08:20:59;;;;;;;10.00;4.32;;;665.70;1587.20;;;;;;4880314;29;20060;-78
2021/06/16 08:23:24;;;;;;;9.07;4.93;;;665.90;1587.20;;;;;;4880792;29;20180;-84
2021/06/16 08:25:50;;;;;;;6.05;3.30;;;665.80;1587.20;;;;;;4881169;29;20467;-78
2021/06/16 08:28:16;;;;;;;6.50;3.80;;;666.00;1587.20;;;;;;4880619;29;20040;-79
2021/06/16 08:30:42;;;;;;;6.30;3.95;;;666.00;1561.60;;;;;;4864268;29;20103;-78
2021/06/16 08:33:09;;;;;;;6.03;3.22;;;666.00;1561.60;;;;;;4863688;29;20542;-82
2021/06/16 08:35:34;;;;;;;6.07;3.05;;;666.00;1536.00;;;;;;4864114;29;20037;-79
2021/06/16 08:38:00;;;;;;;6.13;3.63;;;666.00;1561.60;;;;;;4863738;29;20115;-78
2021/06/16 08:40:26;;;;;;;5.88;3.30;;;666.20;1536.00;;;;;;4864250;29;20108;-79
2021/06/16 08:42:52;;;;;;;6.30;3.33;;;666.20;1510.40;;;;;;4868424;29;20029;-81
2021/06/16 08:45:19;;;;;;;4.32;3.22;;;666.30;1536.00;;;;;;4869126;29;20041;-79
2021/06/16 08:47:46;;;;;;;4.20;2.78;;;666.30;1536.00;;;;;;4863972;29;20468;-77
2021/06/16 08:50:13;;;;;;;5.53;3.17;;;666.50;1561.60;;;;;;4863602;29;20407;-79
2021/06/16 08:52:39;;;;;;;7.32;3.28;;;691.20;1510.40;;;;;;4863847;29;20056;-79
2021/06/16 08:55:11;;;;;;;8.88;3.50;;;691.30;1510.40;;;;;;4880352;29;20032;-80
2021/06/16 08:57:36;;;;;;;5.15;2.95;;;691.30;1484.80;;;;;;4862618;29;20033;-79
2021/06/16 09:00:08;;;;;;;4.47;2.72;;;691.40;1459.20;;;;;;4863461;29;20381;-78
2021/06/16 09:02:34;;;;;;;6.30;2.70;;;691.50;1382.40;;;;;;4863739;29;20067;-79
2021/06/16 09:04:59;;;;;;;4.03;2.83;;;691.70;1382.40;;;;;;4880060;29;20036;-79
2021/06/16 09:07:28;;;;;;;7.35;2.67;;;691.70;1356.80;;;;;;4863294;29;20040;-78
2021/06/16 09:10:17;;;;;;;4.22;3.05;;;691.70;1356.80;;;;;;4863761;29;20498;-80
2021/06/16 09:12:49;;;;;;;3.22;2.60;;;691.80;1408.00;;;;;;4863569;29;20153;-77
2021/06/16 09:15:19;;;;;;;4.65;2.80;;;692.00;1459.20;;;;;;4863337;29;20030;-80
2021/06/16 09:18:06;;;;;;;4.60;2.63;;;692.10;1356.80;;;;;;4879278;29;20168;-78
2021/06/16 09:20:43;;;;;;;5.78;2.65;;;692.00;1331.20;;;;;;4870401;29;20021;-78
2021/06/16 09:23:08;;;;;;;4.40;2.47;;;716.80;1382.40;;;;;;4878550;29;20135;-78
2021/06/16 09:25:34;;;;;;;5.47;2.78;;;716.80;1356.80;;;;;;4862583;29;20130;-81
2021/06/16 09:28:01;;;;;;;5.95;3.08;;;716.90;1382.40;;;;;;4860920;29;20051;-78
2021/06/16 09:30:28;;;;;;;4.57;2.53;;;717.10;1356.80;;;;;;4863109;29;20384;-79
2021/06/16 09:32:58;;;;;;;3.30;2.22;;;716.90;1356.80;;;;;;4862705;29;20025;-78
2021/06/16 09:35:29;;;;;;;5.72;2.53;;;692.10;1305.60;;;;;;4863123;29;20055;-80
2021/06/16 09:37:55;;;;;;;5.50;2.50;;;691.90;1356.80;;;;;;4859516;29;20415;-81
2021/06/16 09:40:28;;;;;;;3.40;2.40;;;716.90;1382.40;;;;;;4879318;29;20061;-78
2021/06/16 09:43:02;;;;;;;8.00;3.10;;;717.10;1356.80;;;;;;4879297;29;20120;-81
2021/06/16 09:45:28;;;;;;;10.00;2.90;;;717.20;1331.20;;;;;;4878977;29;20045;-79
2021/06/16 09:47:54;;;;;;;7.50;3.00;;;717.50;1331.20;;;;;;4866182;29;20049;-79
2021/06/16 09:50:27;;;;;;;12.15;3.78;;;717.70;1356.80;;;;;;4862467;29;20108;-78
2021/06/16 09:52:53;;;;;;;4.50;2.75;;;742.50;1280.00;;;;;;4862165;29;20061;-78
2021/06/16 09:55:21;;;;;;;4.15;2.75;;;742.60;1280.00;;;;;;4878607;29;20036;-78
2021/06/16 09:58:08;;;;;;;4.65;2.15;;;742.60;1280.00;;;;;;4862378;29;20033;-79
2021/06/16 10:00:43;;;;;;;5.50;2.40;;;742.50;1254.40;;;;;;4859858;29;20025;-79
2021/06/16 10:03:12;;;;;;;4.10;2.53;;;742.40;1280.00;;;;;;4862080;29;20057;-79
2021/06/16 10:06:16;;;;;;;3.40;2.08;;;717.60;1228.80;;;;;;4862141;29;20728;-77
2021/06/16 10:08:47;;;;;;;4.13;2.40;;;717.70;1228.80;;;;;;4860507;29;20120;-78
2021/06/16 10:11:16;;;;;;;3.42;2.58;;;742.40;1254.40;;;;;;4878361;29;20017;-78
2021/06/16 10:13:43;;;;;;;4.32;2.45;;;742.40;1305.60;;;;;;4861937;29;20025;-79
2021/06/16 10:16:10;;;;;;;4.60;2.50;;;742.40;1228.80;;;;;;4878470;29;20120;-79
2021/06/16 10:18:44;;;;;;;8.30;2.90;;;717.70;1254.40;;;;;;4861707;29;20057;-80
2021/06/16 10:21:12;;;;;;;6.47;2.03;;;742.40;1228.80;;;;;;4859505;29;20029;-76
2021/06/16 10:23:39;;;;;;;6.15;2.38;;;742.50;1177.60;;;;;;4878017;29;20053;-76
2021/06/16 10:26:14;;;;;;;4.50;2.08;;;742.80;1177.60;;;;;;4878522;29;20543;-79
2021/06/16 10:28:43;;;;;;;11.52;2.75;;;742.90;1152.00;;;;;;4878215;29;20035;-77
2021/06/16 10:31:10;;;;;;;3.17;2.00;;;743.00;1152.00;;;;;;4872531;29;20374;-78
2021/06/16 10:33:39;;;;;;;9.40;2.60;;;742.80;1177.60;;;;;;4862056;29;20028;-79
2021/06/16 10:36:12;;;;;;;5.13;2.72;;;742.50;1228.80;;;;;;4878309;29;20025;-76
2021/06/16 10:38:58;;;;;;;4.85;2.45;;;742.50;1228.80;;;;;;4878419;29;20379;-77
2021/06/16 10:41:45;;;;;;;4.40;2.40;;;742.80;1177.60;;;;;;4856242;29;20472;-76
2021/06/16 10:44:14;;;;;;;3.13;2.05;;;743.10;1152.00;;;;;;4860358;29;20041;-77
2021/06/16 10:47:02;;;;;;;3.58;2.05;;;768.00;1100.80;;;;;;4875815;29;20021;-76
2021/06/16 10:49:43;;;;;;;5.80;2.50;;;768.20;1100.80;;;;;;4876829;29;20085;-77
2021/06/16 10:52:17;;;;;;;4.07;2.60;;;768.20;1075.20;;;;;;4876288;29;20607;-76
2021/06/16 10:55:00;;;;;;;4.03;2.37;;;768.30;1100.80;;;;;;4859252;29;20472;-77
2021/06/16 10:57:27;;;;;;;5.03;2.65;;;768.40;1049.60;;;;;;4859605;29;20029;-77
2021/06/16 10:59:53;;;;;;;5.00;2.40;;;768.20;1075.20;;;;;;4860986;29;20025;-77
2021/06/16 11:02:39;;;;;;;3.28;2.10;;;768.30;1100.80;;;;;;4878050;29;20040;-77
2021/06/16 11:05:35;;;;;;;3.65;2.15;;;768.50;1075.20;;;;;;4878057;29;20496;-79
2021/06/16 11:08:03;;;;;;;;;;;768.80;1024.00;;;;;;4784864;30;20035;-79
2021/06/16 11:10:51;;;;;;;4.00;2.33;;;768.80;1024.00;;;;;;4769605;30;19917;-81
2021/06/16 11:13:38;;;;;;;10.88;2.33;;;768.90;1049.60;;;;;;4774760;30;20051;-78
2021/06/16 11:16:38;;;;;;;25.52;3.58;;;793.60;1024.00;;;;;;4780388;30;20027;-78
2021/06/16 11:19:24;;;;;;;6.53;3.13;;;793.70;1024.00;;;;;;4783905;30;20035;-77
2021/06/16 11:21:52;;;;;;;4.45;2.78;;;768.80;1024.00;;;;;;4775391;29;20046;-78
2021/06/16 11:24:18;;;;;;;3.45;2.50;;;768.40;1049.60;;;;;;4792525;29;20141;-78
2021/06/16 11:26:45;;;;;;;7.07;3.05;;;768.40;1049.60;;;;;;4776858;30;20114;-77
2021/06/16 11:29:11;;;;;;;4.20;2.13;;;768.60;1049.60;;;;;;4784266;30;20031;-78
2021/06/16 11:32:13;;;;;;;3.15;2.25;;;768.90;998.40;;;;;;4768417;30;20163;-77
2021/06/16 11:34:50;;;;;;;4.65;2.10;;;793.60;1049.60;;;;;;4783117;30;20031;-78
2021/06/16 11:37:53;;;;;;;5.55;2.22;;;793.70;998.40;;;;;;4784531;30;20096;-78
2021/06/16 11:40:19;;;;;;;5.03;2.47;;;793.70;1075.20;;;;;;4782828;30;20038;-78
2021/06/16 11:42:45;;;;;;;4.35;2.47;;;768.50;1024.00;;;;;;4768808;30;20042;-78
2021/06/16 11:45:11;;;;;;;4.38;2.65;;;768.30;1024.00;;;;;;4858560;29;20396;-78
2021/06/16 11:47:38;;;;;;;5.00;2.42;;;768.60;1024.00;;;;;;4860563;29;20037;-78
2021/06/16 11:50:06;;;;;;;5.53;2.50;;;768.70;998.40;;;;;;4859978;29;20033;-78
2021/06/16 11:52:32;;;;;;;6.85;2.45;;;793.60;1024.00;;;;;;4877489;29;20085;-79
2021/06/16 11:54:58;;;;;;;5.45;2.60;;;793.70;972.80;;;;;;4877030;29;20033;-77
2021/06/16 11:57:27;;;;;;;14.55;4.80;;;768.90;1024.00;;;;;;4877460;29;20063;-78
2021/06/16 11:59:54;;;;;;;6.85;3.05;;;768.60;1075.20;;;;;;4860388;29;20029;-79
2021/06/16 12:02:23;;;;;;;7.90;4.00;;;768.30;1049.60;;;;;;4860618;29;20025;-78
2021/06/16 12:05:06;;;;;;;8.98;2.65;;;768.10;1075.20;;;;;;4877315;29;20534;-77
2021/06/16 12:07:40;;;;;;;7.05;2.22;;;743.30;1075.20;;;;;;4860065;29;20025;-78
2021/06/16 12:10:10;;;;;;;5.38;2.55;;;743.20;1049.60;;;;;;4860604;29;20432;-77
2021/06/16 12:12:45;;;;;;;12.85;9.45;;;743.30;1049.60;;;;;;4860615;29;20021;-78
2021/06/16 12:15:14;;;;;;;6.63;2.80;;;768.40;1075.20;;;;;;4859596;29;20045;-77
2021/06/16 12:17:58;;;;;;;7.60;4.82;;;768.60;998.40;;;;;;4876616;29;20056;-78
2021/06/16 12:20:26;;;;;;;4.93;3.05;;;768.60;1049.60;;;;;;4875854;29;20061;-77
2021/06/16 12:22:53;;;;;;;9.15;3.97;;;768.40;1024.00;;;;;;4860045;29;20049;-77